Time;durP1;ratioP1;P1;durP2;ratioP2;P2;SDS_P1;SDS_P2;PMS_P1;PMS_P2;Temp;Humidity;BMP_temperature;BMP_pressure;BME280_temperature;BME280_humidity;BME280_pressure;Samples;Min_cycle;Max_cycle;Signal;HPM_P1;HPM_P2
2022/04/13 00:00:28;;;;;;;;;;;16.50;64.30;;;;;;5037183;28;19936;-80
2022/04/13 00:02:55;;;;;;;;;;;16.50;64.40;;;;;;5036615;28;20022;-81
2022/04/13 00:05:21;;;;;;;;;;;16.50;64.50;;;;;;5038871;28;19940;-81
2022/04/13 00:07:48;;;;;;;;;;;16.50;64.60;;;;;;5037189;28;19929;-80
2022/04/13 00:10:14;;;;;;;;;;;16.40;64.70;;;;;;5031886;28;19933;-80
2022/04/13 00:12:42;;;;;;;;;;;16.40;64.80;;;;;;5034411;28;19935;-80
2022/04/13 00:15:09;;;;;;;;;;;16.30;64.80;;;;;;5033075;28;19936;-80
2022/04/13 00:17:36;;;;;;;;;;;16.30;65.00;;;;;;5037032;28;19951;-81
2022/04/13 00:20:03;;;;;;;;;;;16.30;64.90;;;;;;5034216;28;19929;-80
2022/04/13 00:22:30;;;;;;;;;;;16.30;65.00;;;;;;5034401;28;20401;-80
2022/04/13 00:24:57;;;;;;;;;;;16.20;65.00;;;;;;5035929;28;19936;-80
2022/04/13 00:27:23;;;;;;;;;;;16.20;65.10;;;;;;5035779;28;19941;-80
2022/04/13 00:29:51;;;;;;;;;;;16.20;65.20;;;;;;5029122;28;19959;-80
2022/04/13 00:32:18;;;;;;;;;;;16.20;66.10;;;;;;5036495;28;19929;-80
2022/04/13 00:34:44;;;;;;;;;;;16.10;65.30;;;;;;5036318;28;20563;-80
2022/04/13 00:37:11;;;;;;;;;;;16.10;65.30;;;;;;5035737;28;19936;-79
2022/04/13 00:39:37;;;;;;;;;;;16.10;65.40;;;;;;5036110;28;19939;-80
2022/04/13 00:42:05;;;;;;;;;;;16.10;65.50;;;;;;5035878;28;19939;-79
2022/04/13 00:44:32;;;;;;;;;;;16.00;65.60;;;;;;5032915;28;20427;-80
2022/04/13 00:47:01;;;;;;;;;;;16.00;65.60;;;;;;5032186;28;19936;-80
2022/04/13 00:49:28;;;;;;;;;;;16.00;65.70;;;;;;5036507;28;19938;-80
2022/04/13 00:51:54;;;;;;;;;;;16.00;65.90;;;;;;5036681;28;19940;-80
2022/04/13 00:54:22;;;;;;;;;;;15.90;65.90;;;;;;5036008;28;19925;-79
2022/04/13 00:56:49;;;;;;;;;;;15.90;66.00;;;;;;5038907;28;19933;-80
2022/04/13 00:59:16;;;;;;;;;;;15.90;66.10;;;;;;5038404;28;19933;-80
2022/04/13 01:01:46;;;;;;;;;;;15.80;66.00;;;;;;5043341;28;20380;-80
2022/04/13 01:04:15;;;;;;;;;;;15.80;66.10;;;;;;5038063;28;20007;-80
2022/04/13 01:06:42;;;;;;;;;;;15.80;66.20;;;;;;5038859;28;20457;-79
2022/04/13 01:09:08;;;;;;;;;;;15.70;66.40;;;;;;5035535;28;19928;-79
2022/04/13 01:11:35;;;;;;;;;;;15.70;66.50;;;;;;5040856;28;19936;-80
2022/04/13 01:14:01;;;;;;;;;;;15.70;66.60;;;;;;5042551;28;19938;-80
2022/04/13 01:16:28;;;;;;;;;;;15.70;66.80;;;;;;5040809;28;19940;-80
2022/04/13 01:18:56;;;;;;;;;;;15.70;66.80;;;;;;5035086;28;19932;-80
2022/04/13 01:24:18;;;;;;;;;;;15.60;66.90;;;;;;5134813;27;19929;-78
2022/04/13 01:26:45;;;;;;;;;;;15.60;67.00;;;;;;5128178;27;20614;-77
2022/04/13 01:29:12;;;;;;;;;;;15.50;67.00;;;;;;5126759;27;19935;-78
2022/04/13 01:31:39;;;;;;;;;;;15.50;67.10;;;;;;5129545;27;19927;-77
2022/04/13 01:34:06;;;;;;;;;;;15.50;67.20;;;;;;5130571;27;19927;-78
2022/04/13 01:36:33;;;;;;;;;;;15.50;67.20;;;;;;5128944;27;19931;-78
2022/04/13 01:39:00;;;;;;;;;;;15.40;67.20;;;;;;5127717;27;20382;-74
2022/04/13 01:41:28;;;;;;;;;;;15.40;67.20;;;;;;5127699;27;19931;-75
2022/04/13 01:43:54;;;;;;;;;;;15.40;67.20;;;;;;5131138;27;19934;-76
2022/04/13 01:46:21;;;;;;;;;;;15.40;67.30;;;;;;5129283;27;19932;-75
2022/04/13 01:48:47;;;;;;;;;;;15.40;67.50;;;;;;5129684;27;19932;-76
2022/04/13 01:51:14;;;;;;;;;;;15.30;67.50;;;;;;5129537;27;19939;-78
2022/04/13 01:53:41;;;;;;;;;;;15.30;67.60;;;;;;5126734;27;20384;-77
2022/04/13 01:56:07;;;;;;;;;;;15.30;67.70;;;;;;5127945;27;19927;-77
2022/04/13 01:58:35;;;;;;;;;;;15.30;67.80;;;;;;5127679;27;19927;-76
2022/04/13 02:01:02;;;;;;;;;;;15.20;67.80;;;;;;5125955;27;20513;-75
2022/04/13 02:03:30;;;;;;;;;;;15.20;67.90;;;;;;5129529;27;19927;-78
2022/04/13 02:05:56;;;;;;;;;;;15.20;67.90;;;;;;5130286;27;19927;-77
2022/04/13 02:08:23;;;;;;;;;;;15.20;68.00;;;;;;5127591;27;19927;-77
2022/04/13 02:10:50;;;;;;;;;;;15.20;68.10;;;;;;5125456;27;19939;-76
2022/04/13 02:13:16;;;;;;;;;;;15.10;68.20;;;;;;5128681;27;19927;-77
2022/04/13 02:15:45;;;;;;;;;;;15.10;68.20;;;;;;5127120;27;19928;-77
2022/04/13 02:18:11;;;;;;;;;;;15.10;68.30;;;;;;5127919;27;19935;-77
2022/04/13 02:20:38;;;;;;;;;;;15.00;68.30;;;;;;5127229;27;19928;-76
2022/04/13 02:23:04;;;;;;;;;;;15.10;68.40;;;;;;5126747;27;19931;-76
2022/04/13 02:25:33;;;;;;;;;;;15.00;68.40;;;;;;5123411;27;19938;-75
2022/04/13 02:28:00;;;;;;;;;;;15.00;68.50;;;;;;5126795;27;19977;-75
2022/04/13 02:30:27;;;;;;;;;;;15.00;68.60;;;;;;5119841;27;19943;-77
2022/04/13 02:32:55;;;;;;;;;;;15.00;68.70;;;;;;5132252;27;19928;-77
2022/04/13 02:35:22;;;;;;;;;;;15.00;68.80;;;;;;5113935;27;19927;-77
2022/04/13 02:37:48;;;;;;;;;;;15.00;68.80;;;;;;5113322;27;19939;-77
2022/04/13 02:40:16;;;;;;;;;;;14.90;68.90;;;;;;5113606;27;19939;-77
2022/04/13 02:42:42;;;;;;;;;;;14.90;68.90;;;;;;5113087;27;19928;-77
2022/04/13 02:45:10;;;;;;;;;;;14.90;69.00;;;;;;5113155;27;19928;-77
2022/04/13 02:47:37;;;;;;;;;;;14.80;69.00;;;;;;5113684;27;19928;-76
2022/04/13 02:50:06;;;;;;;;;;;14.80;69.10;;;;;;5112140;27;19939;-77
2022/04/13 02:52:32;;;;;;;;;;;14.90;69.30;;;;;;5115604;27;19931;-77
2022/04/13 02:54:59;;;;;;;;;;;14.80;69.30;;;;;;5113381;27;20025;-75
2022/04/13 02:57:26;;;;;;;;;;;14.80;69.40;;;;;;5113653;27;19932;-77
2022/04/13 02:59:52;;;;;;;;;;;14.80;69.40;;;;;;5108737;27;20847;-78
2022/04/13 03:02:19;;;;;;;;;;;14.80;69.50;;;;;;5109666;27;19931;-74
2022/04/13 03:04:47;;;;;;;;;;;14.80;69.50;;;;;;5109246;27;19931;-76
2022/04/13 03:07:15;;;;;;;;;;;14.70;69.50;;;;;;5112637;27;20852;-77
2022/04/13 03:09:42;;;;;;;;;;;14.70;69.60;;;;;;5111862;27;20415;-77
2022/04/13 03:12:10;;;;;;;;;;;14.70;69.70;;;;;;5110221;27;19931;-74
2022/04/13 03:14:37;;;;;;;;;;;14.70;69.80;;;;;;5111948;27;19971;-75
2022/04/13 03:17:04;;;;;;;;;;;14.60;69.90;;;;;;5113307;27;20379;-77
2022/04/13 03:19:31;;;;;;;;;;;14.60;70.00;;;;;;5113887;27;19927;-77
2022/04/13 03:21:58;;;;;;;;;;;14.60;70.10;;;;;;5111683;27;20323;-76
2022/04/13 03:24:26;;;;;;;;;;;14.60;70.10;;;;;;5109208;27;19927;-76
2022/04/13 03:26:53;;;;;;;;;;;14.50;70.00;;;;;;5115659;27;19927;-78
2022/04/13 03:29:20;;;;;;;;;;;14.40;71.00;;;;;;5114855;27;19931;-74
2022/04/13 03:31:47;;;;;;;;;;;14.30;71.20;;;;;;5111996;27;19927;-76
2022/04/13 03:34:13;;;;;;;;;;;14.30;71.40;;;;;;5116439;27;19927;-75
2022/04/13 03:36:40;;;;;;;;;;;14.20;71.40;;;;;;5114782;27;19927;-77
2022/04/13 03:39:07;;;;;;;;;;;14.20;71.50;;;;;;5116776;27;19927;-77
2022/04/13 03:41:35;;;;;;;;;;;14.20;71.60;;;;;;5117715;27;19931;-78
2022/04/13 03:44:02;;;;;;;;;;;14.10;71.70;;;;;;5113940;27;19927;-76
2022/04/13 03:46:28;;;;;;;;;;;14.10;71.80;;;;;;5110527;27;19932;-75
2022/04/13 03:48:55;;;;;;;;;;;14.00;71.80;;;;;;5116556;27;19927;-77
2022/04/13 03:51:22;;;;;;;;;;;14.00;72.10;;;;;;5113999;27;19927;-77
2022/04/13 03:53:48;;;;;;;;;;;14.00;72.10;;;;;;5115237;27;20402;-75
2022/04/13 03:56:15;;;;;;;;;;;14.00;72.10;;;;;;5108355;27;19961;-74
2022/04/13 03:58:43;;;;;;;;;;;14.00;72.20;;;;;;5116620;27;19934;-77
2022/04/13 04:01:09;;;;;;;;;;;14.00;72.30;;;;;;5109424;27;20675;-76
2022/04/13 04:03:36;;;;;;;;;;;13.90;72.40;;;;;;5114254;27;19935;-77
2022/04/13 04:06:03;;;;;;;;;;;13.90;72.40;;;;;;5111058;27;19928;-78
2022/04/13 04:08:31;;;;;;;;;;;13.90;72.50;;;;;;5114894;27;20454;-76
2022/04/13 04:10:58;;;;;;;;;;;13.80;72.50;;;;;;5109999;27;19957;-74
2022/04/13 04:13:24;;;;;;;;;;;13.80;72.60;;;;;;5117384;27;19927;-76
2022/04/13 04:15:52;;;;;;;;;;;13.80;72.70;;;;;;5111445;27;19935;-77
2022/04/13 04:18:19;;;;;;;;;;;13.80;72.80;;;;;;5112436;27;19935;-75
2022/04/13 04:20:45;;;;;;;;;;;13.70;72.80;;;;;;5108787;27;20458;-76
2022/04/13 04:23:12;;;;;;;;;;;13.70;72.90;;;;;;5113033;27;19931;-78
2022/04/13 04:25:38;;;;;;;;;;;13.70;73.00;;;;;;5112201;27;19931;-75
2022/04/13 04:28:06;;;;;;;;;;;13.60;73.00;;;;;;5114570;27;19934;-76
2022/04/13 04:30:33;;;;;;;;;;;13.60;73.00;;;;;;5114217;27;19938;-76
2022/04/13 04:33:00;;;;;;;;;;;13.60;73.10;;;;;;5110041;27;19928;-77
2022/04/13 04:35:27;;;;;;;;;;;13.60;73.20;;;;;;5111408;27;19934;-76
2022/04/13 04:37:54;;;;;;;;;;;13.60;73.30;;;;;;5112915;27;19923;-76
2022/04/13 04:40:20;;;;;;;;;;;13.50;73.30;;;;;;5112427;27;20241;-77
2022/04/13 04:42:47;;;;;;;;;;;13.50;73.40;;;;;;5113489;27;20284;-78
2022/04/13 04:45:16;;;;;;;;;;;13.50;73.40;;;;;;5113136;27;19934;-75
2022/04/13 04:47:43;;;;;;;;;;;13.40;73.50;;;;;;5110968;27;19927;-76
2022/04/13 04:50:11;;;;;;;;;;;13.40;73.60;;;;;;5114694;27;19935;-77
2022/04/13 04:52:40;;;;;;;;;;;13.30;73.50;;;;;;5115115;27;20310;-74
2022/04/13 04:55:07;;;;;;;;;;;13.30;73.60;;;;;;5108512;27;19938;-76
2022/04/13 04:57:33;;;;;;;;;;;13.30;73.70;;;;;;5112754;27;19929;-77
2022/04/13 05:00:00;;;;;;;;;;;13.20;73.70;;;;;;5115766;27;19931;-76
2022/04/13 05:02:27;;;;;;;;;;;13.20;73.80;;;;;;5112325;27;20499;-75
2022/04/13 05:04:54;;;;;;;;;;;13.20;73.80;;;;;;5115323;27;19973;-77
2022/04/13 05:07:22;;;;;;;;;;;13.10;73.80;;;;;;5117605;27;19950;-78
2022/04/13 05:09:48;;;;;;;;;;;13.20;74.10;;;;;;5113376;27;19934;-74
2022/04/13 05:12:15;;;;;;;;;;;13.10;74.00;;;;;;5108766;27;19927;-76
2022/04/13 05:14:41;;;;;;;;;;;13.10;74.10;;;;;;5114282;27;19934;-76
2022/04/13 05:17:08;;;;;;;;;;;13.10;74.20;;;;;;5107243;27;19927;-75
2022/04/13 05:19:35;;;;;;;;;;;13.10;74.30;;;;;;5110126;27;19935;-76
2022/04/13 05:22:01;;;;;;;;;;;13.10;74.20;;;;;;5114363;27;20665;-75
2022/04/13 05:24:29;;;;;;;;;;;13.10;74.30;;;;;;5113882;27;19939;-73
2022/04/13 05:26:55;;;;;;;;;;;13.00;74.40;;;;;;5112512;27;20563;-78
2022/04/13 05:29:22;;;;;;;;;;;13.00;74.40;;;;;;5114348;27;20418;-77
2022/04/13 05:31:49;;;;;;;;;;;13.00;74.60;;;;;;5112102;27;19927;-77
2022/04/13 05:34:15;;;;;;;;;;;13.00;74.70;;;;;;5108968;27;20001;-77
2022/04/13 05:36:42;;;;;;;;;;;12.90;74.90;;;;;;5109551;27;19957;-78
2022/04/13 05:39:08;;;;;;;;;;;12.90;74.90;;;;;;5113605;27;20497;-75
2022/04/13 05:41:36;;;;;;;;;;;12.90;75.00;;;;;;5114318;27;19950;-77
2022/04/13 05:44:03;;;;;;;;;;;12.90;75.20;;;;;;5112055;27;20415;-79
2022/04/13 05:46:30;;;;;;;;;;;12.90;75.30;;;;;;5116349;27;19939;-77
2022/04/13 05:48:56;;;;;;;;;;;12.90;75.40;;;;;;5105413;27;20257;-68
2022/04/13 05:51:23;;;;;;;;;;;12.90;75.50;;;;;;5116917;27;20352;-68
2022/04/13 05:53:49;;;;;;;;;;;12.90;75.70;;;;;;5109818;27;19927;-68
2022/04/13 05:56:16;;;;;;;;;;;12.80;75.80;;;;;;5112425;27;19927;-66
2022/04/13 05:58:44;;;;;;;;;;;12.80;75.90;;;;;;5101928;28;19927;-68
2022/04/13 06:01:10;;;;;;;;;;;12.80;76.10;;;;;;5115469;27;19932;-68
2022/04/13 06:03:37;;;;;;;;;;;12.80;76.30;;;;;;5108768;27;20458;-66
2022/04/13 06:06:03;;;;;;;;;;;12.80;76.50;;;;;;5115978;27;19932;-68
2022/04/13 06:08:30;;;;;;;;;;;12.80;76.60;;;;;;5113306;27;20450;-68
2022/04/13 06:10:56;;;;;;;;;;;12.70;76.70;;;;;;5116532;27;20424;-66
2022/04/13 06:13:23;;;;;;;;;;;12.70;76.90;;;;;;5118598;27;19923;-68
2022/04/13 06:15:51;;;;;;;;;;;12.70;77.00;;;;;;5110238;27;19931;-73
2022/04/13 06:18:17;;;;;;;;;;;12.80;77.00;;;;;;5109750;27;19931;-66
2022/04/13 06:20:45;;;;;;;;;;;12.70;77.00;;;;;;5114351;27;20392;-68
2022/04/13 06:23:12;;;;;;;;;;;12.70;77.00;;;;;;5119024;27;20634;-68
2022/04/13 06:25:38;;;;;;;;;;;12.70;77.00;;;;;;5118488;27;21295;-67
2022/04/13 06:28:05;;;;;;;;;;;12.70;77.10;;;;;;5116061;27;19927;-67
2022/04/13 06:30:31;;;;;;;;;;;12.70;77.20;;;;;;5117983;27;19927;-67
2022/04/13 06:32:59;;;;;;;;;;;12.70;77.20;;;;;;5114105;27;19927;-66
2022/04/13 06:35:26;;;;;;;;;;;12.70;77.30;;;;;;5122516;27;19927;-68
2022/04/13 06:37:52;;;;;;;;;;;12.70;77.50;;;;;;5115805;27;19932;-66
2022/04/13 06:40:19;;;;;;;;;;;12.70;77.50;;;;;;5121026;27;19934;-66
2022/04/13 06:42:46;;;;;;;;;;;12.70;77.70;;;;;;5115066;27;20043;-68
2022/04/13 06:45:14;;;;;;;;;;;12.70;77.80;;;;;;5119339;27;19928;-68
2022/04/13 06:47:41;;;;;;;;;;;12.70;77.80;;;;;;5119869;27;19939;-68
2022/04/13 06:50:09;;;;;;;;;;;12.70;77.80;;;;;;5122996;27;19934;-66
2022/04/13 06:52:37;;;;;;;;;;;12.80;78.00;;;;;;5115084;27;19938;-67
2022/04/13 06:55:03;;;;;;;;;;;12.70;77.90;;;;;;5117147;27;19935;-67
2022/04/13 06:57:33;;;;;;;;;;;12.70;77.90;;;;;;5118525;27;19931;-67
2022/04/13 06:59:59;;;;;;;;;;;12.70;77.90;;;;;;5117636;27;19928;-68
2022/04/13 07:02:26;;;;;;;;;;;12.70;78.00;;;;;;5115842;27;19957;-68
2022/04/13 07:04:53;;;;;;;;;;;12.70;77.90;;;;;;5119041;27;20103;-75
2022/04/13 07:07:21;;;;;;;;;;;12.80;77.80;;;;;;5113176;27;19939;-75
2022/04/13 07:09:47;;;;;;;;;;;12.80;77.80;;;;;;5114691;27;19927;-76
2022/04/13 07:12:14;;;;;;;;;;;12.80;78.00;;;;;;5115726;27;19935;-75
2022/04/13 07:14:41;;;;;;;;;;;12.70;77.90;;;;;;5113588;27;19931;-78
2022/04/13 07:17:08;;;;;;;;;;;12.80;77.70;;;;;;5113318;27;19936;-75
2022/04/13 07:19:35;;;;;;;;;;;12.80;77.60;;;;;;5113495;27;19934;-78
2022/04/13 07:22:01;;;;;;;;;;;12.90;77.70;;;;;;5114450;27;20137;-74
2022/04/13 07:24:29;;;;;;;;;;;12.80;77.70;;;;;;5111889;27;19928;-76
2022/04/13 07:26:56;;;;;;;;;;;12.90;77.50;;;;;;5110078;27;19927;-73
2022/04/13 07:29:22;;;;;;;;;;;12.90;77.30;;;;;;5116501;27;19932;-72
2022/04/13 07:31:49;;;;;;;;;;;12.90;77.20;;;;;;5109516;27;19932;-76
2022/04/13 07:34:16;;;;;;;;;;;12.90;77.00;;;;;;5117032;27;19950;-78
2022/04/13 07:36:43;;;;;;;;;;;13.00;77.00;;;;;;5111122;27;19931;-77
2022/04/13 07:39:09;;;;;;;;;;;13.00;76.90;;;;;;5113651;27;20486;-74
2022/04/13 07:41:37;;;;;;;;;;;13.00;76.80;;;;;;5115605;27;20302;-77
2022/04/13 07:44:04;;;;;;;;;;;13.00;76.70;;;;;;5111046;27;19932;-77
2022/04/13 07:46:31;;;;;;;;;;;13.00;76.60;;;;;;5114917;27;19935;-77
2022/04/13 07:48:57;;;;;;;;;;;13.10;76.60;;;;;;5121909;27;20325;-74
2022/04/13 07:51:24;;;;;;;;;;;13.00;76.40;;;;;;5120656;27;19927;-75
2022/04/13 07:53:50;;;;;;;;;;;13.10;76.40;;;;;;5108850;27;19934;-75
2022/04/13 07:56:17;;;;;;;;;;;13.20;76.40;;;;;;5114822;27;19927;-78
2022/04/13 07:58:45;;;;;;;;;;;13.20;76.20;;;;;;5116989;27;19935;-76
2022/04/13 08:01:11;;;;;;;;;;;13.20;76.20;;;;;;5111402;27;19936;-78
2022/04/13 08:03:38;;;;;;;;;;;13.20;76.20;;;;;;5120437;27;19947;-77
2022/04/13 08:06:04;;;;;;;;;;;13.30;76.10;;;;;;5111871;27;19935;-74
2022/04/13 08:08:31;;;;;;;;;;;13.30;76.10;;;;;;5119011;27;20387;-76
2022/04/13 08:10:57;;;;;;;;;;;13.30;76.00;;;;;;5116070;27;19935;-77
2022/04/13 08:13:24;;;;;;;;;;;13.30;76.10;;;;;;5122174;27;19928;-76
2022/04/13 08:15:52;;;;;;;;;;;13.40;76.20;;;;;;5117771;27;19938;-76
2022/04/13 08:18:19;;;;;;;;;;;13.40;76.30;;;;;;5114679;27;20450;-75
2022/04/13 08:20:45;;;;;;;;;;;13.40;76.20;;;;;;5113948;27;19939;-75
2022/04/13 08:23:12;;;;;;;;;;;13.50;76.20;;;;;;5117185;27;20031;-75
2022/04/13 08:25:39;;;;;;;;;;;13.50;76.10;;;;;;5114601;27;19928;-77
2022/04/13 08:28:05;;;;;;;;;;;13.50;75.90;;;;;;5114738;27;19928;-75
2022/04/13 08:30:32;;;;;;;;;;;13.60;75.80;;;;;;5112166;27;19923;-75
2022/04/13 08:33:00;;;;;;;;;;;13.60;75.60;;;;;;5113318;27;19927;-77
2022/04/13 08:35:26;;;;;;;;;;;13.70;75.50;;;;;;5111338;27;19934;-75
2022/04/13 08:37:53;;;;;;;;;;;13.70;75.40;;;;;;5115085;27;19939;-75
2022/04/13 08:40:21;;;;;;;;;;;13.70;75.20;;;;;;5113148;27;19927;-73
2022/04/13 08:42:52;;;;;;;;;;;13.80;75.00;;;;;;5115121;27;19931;-79
2022/04/13 08:45:21;;;;;;;;;;;13.80;74.70;;;;;;5109790;27;19938;-77
2022/04/13 08:47:48;;;;;;;;;;;13.90;74.40;;;;;;5112498;27;19959;-79
2022/04/13 08:50:17;;;;;;;;;;;13.90;74.20;;;;;;5114496;27;19928;-76
2022/04/13 08:52:49;;;;;;;;;;;14.00;73.70;;;;;;5112697;27;19931;-76
2022/04/13 08:55:16;;;;;;;;;;;14.10;73.30;;;;;;5113579;27;19935;-76
2022/04/13 08:57:46;;;;;;;;;;;14.10;72.90;;;;;;5116342;27;20432;-76
2022/04/13 09:00:14;;;;;;;;;;;14.20;72.90;;;;;;5110021;27;19928;-79
2022/04/13 09:02:49;;;;;;;;;;;14.20;72.60;;;;;;5115374;27;19969;-76
2022/04/13 09:05:18;;;;;;;;;;;14.20;72.40;;;;;;5111612;27;19927;-74
2022/04/13 09:07:47;;;;;;;;;;;14.30;72.00;;;;;;5114746;27;19934;-75
2022/04/13 09:10:17;;;;;;;;;;;14.30;71.60;;;;;;5113201;27;20505;-77
2022/04/13 09:12:44;;;;;;;;;;;14.40;71.60;;;;;;5116894;27;20380;-74
2022/04/13 09:15:12;;;;;;;;;;;14.40;71.00;;;;;;5109309;27;20195;-77
2022/04/13 09:17:39;;;;;;;;;;;14.50;70.00;;;;;;5110130;27;19928;-78
2022/04/13 09:20:06;;;;;;;;;;;14.50;69.80;;;;;;5115471;27;19935;-77
2022/04/13 09:22:35;;;;;;;;;;;14.60;69.80;;;;;;5113986;27;19946;-76
2022/04/13 09:25:02;;;;;;;;;;;14.60;69.60;;;;;;5117296;27;20227;-76
2022/04/13 09:27:28;;;;;;;;;;;14.70;69.70;;;;;;5108380;27;19928;-76
2022/04/13 09:29:55;;;;;;;;;;;14.70;69.90;;;;;;5112154;27;19928;-73
2022/04/13 09:32:23;;;;;;;;;;;14.80;69.80;;;;;;5113392;27;19939;-77
2022/04/13 09:34:50;;;;;;;;;;;14.90;69.40;;;;;;5112162;27;20765;-73
2022/04/13 09:37:17;;;;;;;;;;;15.00;69.60;;;;;;5114350;27;20520;-75
2022/04/13 09:39:45;;;;;;;;;;;15.00;69.20;;;;;;5112822;27;19927;-75
2022/04/13 09:42:13;;;;;;;;;;;15.00;68.60;;;;;;5119807;27;19934;-75
2022/04/13 09:44:41;;;;;;;;;;;15.10;68.20;;;;;;5111211;27;20745;-78
2022/04/13 09:47:08;;;;;;;;;;;15.10;67.50;;;;;;5114624;27;19935;-77
2022/04/13 09:49:34;;;;;;;;;;;15.20;66.60;;;;;;5114355;27;19935;-76
2022/04/13 09:52:01;;;;;;;;;;;15.20;66.10;;;;;;5118953;27;19927;-78
2022/04/13 09:54:28;;;;;;;;;;;15.30;66.40;;;;;;5118339;27;19934;-77
2022/04/13 09:56:56;;;;;;;;;;;15.40;66.70;;;;;;5119685;27;19931;-75
2022/04/13 09:59:26;;;;;;;;;;;15.40;66.60;;;;;;5113999;27;19938;-77
2022/04/13 10:01:52;;;;;;;;;;;15.50;66.30;;;;;;5100157;27;19966;-77
2022/04/13 10:04:26;;;;;;;;;;;15.60;66.20;;;;;;5095796;27;19950;-79
2022/04/13 10:06:53;;;;;;;;;;;15.60;66.10;;;;;;5098870;28;19979;-75
2022/04/13 10:09:20;;;;;;;;;;;15.70;65.80;;;;;;5098426;27;20047;-75
2022/04/13 10:12:02;;;;;;;;;;;15.80;65.60;;;;;;5098092;28;19927;-76
2022/04/13 10:14:30;;;;;;;;;;;15.90;63.80;;;;;;5100876;27;20013;-75
2022/04/13 10:17:06;;;;;;;;;;;16.00;63.70;;;;;;5100412;27;19928;-75
2022/04/13 10:19:33;;;;;;;;;;;16.00;63.80;;;;;;5101704;27;19931;-77
2022/04/13 10:21:59;;;;;;;;;;;16.00;63.60;;;;;;5104784;27;19927;-76
2022/04/13 10:24:28;;;;;;;;;;;16.10;63.70;;;;;;5100835;27;20383;-73
2022/04/13 10:27:00;;;;;;;;;;;16.20;63.70;;;;;;5100700;27;19932;-76
2022/04/13 10:29:27;;;;;;;;;;;16.20;63.50;;;;;;5098184;27;20670;-72
2022/04/13 10:32:08;;;;;;;;;;;16.30;63.30;;;;;;5109292;27;19924;-76
2022/04/13 10:34:35;;;;;;;;;;;16.40;63.10;;;;;;5111370;27;19930;-76
2022/04/13 10:37:02;;;;;;;;;;;16.50;62.90;;;;;;5109322;27;19963;-74
2022/04/13 10:39:30;;;;;;;;;;;16.50;62.60;;;;;;5114892;27;19934;-74
2022/04/13 10:41:57;;;;;;;;;;;16.60;62.40;;;;;;5109259;27;19930;-80
2022/04/13 10:44:29;;;;;;;;;;;16.70;62.20;;;;;;5111718;27;19939;-77
2022/04/13 10:46:58;;;;;;;;;;;16.70;62.00;;;;;;5118083;27;19984;-80
2022/04/13 10:49:29;;;;;;;;;;;16.80;61.70;;;;;;5110533;27;20387;-74
2022/04/13 10:51:56;;;;;;;;;;;16.80;60.10;;;;;;5116585;27;19932;-78
2022/04/13 10:54:26;;;;;;;;;;;16.90;60.50;;;;;;5107852;27;21269;-77
2022/04/13 10:56:56;;;;;;;;;;;17.00;60.60;;;;;;5108414;27;19931;-75
2022/04/13 10:59:24;;;;;;;;;;;17.00;60.40;;;;;;5113050;27;20464;-77
2022/04/13 11:01:53;;;;;;;;;;;17.10;60.10;;;;;;5108509;27;20034;-77
2022/04/13 11:04:21;;;;;;;;;;;17.20;59.90;;;;;;5117329;27;19927;-77
2022/04/13 11:06:49;;;;;;;;;;;17.30;59.20;;;;;;5113456;27;19928;-75
2022/04/13 11:09:17;;;;;;;;;;;17.30;59.30;;;;;;5116051;27;19970;-78
2022/04/13 11:11:44;;;;;;;;;;;17.40;59.10;;;;;;5110668;27;19938;-75
2022/04/13 11:14:18;;;;;;;;;;;17.50;59.00;;;;;;5114494;27;19935;-79
2022/04/13 11:16:45;;;;;;;;;;;17.50;59.00;;;;;;5118067;27;19935;-76
2022/04/13 11:19:18;;;;;;;;;;;17.60;58.50;;;;;;5116367;27;19935;-76
2022/04/13 11:21:59;;;;;;;;;;;17.60;58.40;;;;;;5114663;27;19934;-76
2022/04/13 11:24:34;;;;;;;;;;;17.70;58.40;;;;;;5115367;27;19938;-74
2022/04/13 11:27:01;;;;;;;;;;;17.80;58.30;;;;;;5106408;27;19935;-78
2022/04/13 11:29:33;;;;;;;;;;;17.80;58.30;;;;;;5112060;27;19934;-74
2022/04/13 11:32:05;;;;;;;;;;;17.90;58.20;;;;;;5114777;27;20322;-79
2022/04/13 11:34:36;;;;;;;;;;;18.00;58.10;;;;;;5110231;27;19935;-80
2022/04/13 11:37:04;;;;;;;;;;;18.00;58.00;;;;;;5114826;27;19938;-80
2022/04/13 11:39:59;;;;;;;;;;;18.20;57.90;;;;;;5109751;27;19928;-80
2022/04/13 11:42:46;;;;;;;;;;;18.20;57.40;;;;;;5076118;27;20424;-78
2022/04/13 11:45:15;;;;;;;;;;;18.30;56.60;;;;;;5113110;27;19931;-77
2022/04/13 11:47:43;;;;;;;;;;;18.30;56.80;;;;;;5111701;27;20685;-76
2022/04/13 11:50:20;;;;;;;;;;;18.40;56.90;;;;;;5116884;27;19928;-78
2022/04/13 11:52:48;;;;;;;;;;;18.50;56.40;;;;;;5109027;27;19928;-76
2022/04/13 11:55:16;;;;;;;;;;;18.50;56.80;;;;;;5118660;27;19934;-78
2022/04/13 11:58:07;;;;;;;;;;;18.60;56.70;;;;;;5111050;27;20414;-76
2022/04/13 12:00:39;;;;;;;;;;;18.60;56.70;;;;;;5104274;27;20500;-82
2022/04/13 12:03:07;;;;;;;;;;;18.70;56.40;;;;;;5114208;27;19938;-79
2022/04/13 12:05:34;;;;;;;;;;;18.70;56.40;;;;;;5111223;27;20402;-80
2022/04/13 12:08:00;;;;;;;;;;;18.80;56.50;;;;;;5111756;27;19927;-82
2022/04/13 12:10:37;;;;;;;;;;;18.90;56.50;;;;;;5110789;27;20657;-81
2022/04/13 12:13:04;;;;;;;;;;;19.00;56.40;;;;;;5112280;27;19939;-79
2022/04/13 12:15:42;;;;;;;;;;;19.00;56.20;;;;;;5107703;27;19949;-80
2022/04/13 12:18:09;;;;;;;;;;;19.20;56.10;;;;;;5115618;27;19963;-77
2022/04/13 12:20:36;;;;;;;;;;;19.20;55.90;;;;;;5113888;27;19932;-75
2022/04/13 12:23:14;;;;;;;;;;;19.30;55.90;;;;;;5115801;27;19932;-77
2022/04/13 12:25:42;;;;;;;;;;;19.40;55.70;;;;;;5111466;27;20434;-79
2022/04/13 12:28:08;;;;;;;;;;;19.40;55.50;;;;;;5109582;27;20616;-77
2022/04/13 12:30:35;;;;;;;;;;;19.50;55.40;;;;;;5105040;27;19937;-78
2022/04/13 12:33:13;;;;;;;;;;;19.50;55.20;;;;;;5106207;27;19927;-78
2022/04/13 12:35:46;;;;;;;;;;;19.90;53.10;;;;;;5108442;27;20479;-79
2022/04/13 12:38:20;;;;;;;;;;;20.20;52.20;;;;;;5110817;27;20018;-76
2022/04/13 12:40:47;;;;;;;;;;;20.60;51.80;;;;;;5112394;27;20482;-81
2022/04/13 12:43:24;;;;;;;;;;;20.90;51.10;;;;;;5114824;27;20338;-78
2022/04/13 12:45:51;;;;;;;;;;;21.20;50.70;;;;;;5116817;27;19928;-78
2022/04/13 12:48:24;;;;;;;;;;;21.50;50.40;;;;;;5115901;27;19953;-77
2022/04/13 12:50:54;;;;;;;;;;;21.60;50.00;;;;;;5117523;27;19934;-78
2022/04/13 12:53:21;;;;;;;;;;;21.80;49.70;;;;;;5111691;27;19928;-79
2022/04/13 12:55:51;;;;;;;;;;;21.90;49.40;;;;;;5108349;27;19927;-78
2022/04/13 12:58:17;;;;;;;;;;;22.10;49.20;;;;;;5110646;27;19923;-82
2022/04/13 13:00:51;;;;;;;;;;;22.20;49.00;;;;;;5108986;27;19935;-76
2022/04/13 13:03:19;;;;;;;;;;;22.30;48.80;;;;;;5107319;27;19939;-80
2022/04/13 13:05:46;;;;;;;;;;;22.40;48.80;;;;;;5112408;27;19946;-84
2022/04/13 13:08:13;;;;;;;;;;;22.50;49.90;;;;;;5113226;27;19930;-81
2022/04/13 13:10:43;;;;;;;;;;;22.60;48.50;;;;;;5110187;27;19939;-76
2022/04/13 13:13:10;;;;;;;;;;;22.60;48.10;;;;;;5113176;27;19956;-77
2022/04/13 13:15:37;;;;;;;;;;;22.60;48.00;;;;;;5111478;27;20011;-78
2022/04/13 13:18:07;;;;;;;;;;;22.70;47.60;;;;;;5113071;27;19938;-80
2022/04/13 13:20:36;;;;;;;;;;;22.80;48.00;;;;;;5111361;27;20502;-80
2022/04/13 13:23:08;;;;;;;;;;;22.80;47.80;;;;;;5108169;27;19932;-77
2022/04/13 13:25:40;;;;;;;;;;;22.90;47.50;;;;;;5109556;27;20437;-78
2022/04/13 13:28:07;;;;;;;;;;;22.90;47.50;;;;;;5109271;27;19934;-76
2022/04/13 13:30:38;;;;;;;;;;;22.90;47.50;;;;;;5108848;27;19927;-79
2022/04/13 13:33:09;;;;;;;;;;;23.00;47.40;;;;;;5107754;27;20757;-76
2022/04/13 13:35:37;;;;;;;;;;;23.10;47.40;;;;;;5110919;27;19923;-77
2022/04/13 13:38:10;;;;;;;;;;;23.10;47.30;;;;;;5108494;27;19932;-80
2022/04/13 13:40:44;;;;;;;;;;;23.20;47.40;;;;;;5110141;27;19928;-78
2022/04/13 13:43:11;;;;;;;;;;;23.20;47.50;;;;;;5113449;27;19928;-79
2022/04/13 13:45:39;;;;;;;;;;;23.30;47.60;;;;;;5110532;27;19927;-75
2022/04/13 13:48:06;;;;;;;;;;;23.30;47.70;;;;;;5103349;27;19928;-77
2022/04/13 13:50:34;;;;;;;;;;;23.40;47.50;;;;;;5108259;27;19938;-67
2022/04/13 13:53:02;;;;;;;;;;;23.40;47.40;;;;;;5109561;27;19932;-68
2022/04/13 13:55:29;;;;;;;;;;;23.40;47.50;;;;;;5113387;27;19935;-69
2022/04/13 13:57:57;;;;;;;;;;;23.50;47.70;;;;;;5117146;27;19932;-69
2022/04/13 14:00:24;;;;;;;;;;;23.50;48.00;;;;;;5114568;27;19931;-68
2022/04/13 14:02:53;;;;;;;;;;;23.60;48.00;;;;;;5111503;27;19928;-69
2022/04/13 14:05:23;;;;;;;;;;;23.60;48.30;;;;;;5113751;27;19928;-66
2022/04/13 14:07:50;;;;;;;;;;;23.60;48.20;;;;;;5105226;27;19927;-70
2022/04/13 14:10:18;;;;;;;;;;;23.70;47.10;;;;;;5111302;27;19928;-68
2022/04/13 14:12:44;;;;;;;;;;;23.70;47.20;;;;;;5111767;27;19935;-69
2022/04/13 14:15:11;;;;;;;;;;;23.80;47.60;;;;;;5112322;27;19927;-70
2022/04/13 14:17:39;;;;;;;;;;;23.80;47.90;;;;;;5108463;27;20011;-68
2022/04/13 14:20:06;;;;;;;;;;;23.90;48.10;;;;;;5110798;27;19934;-68
2022/04/13 14:22:33;;;;;;;;;;;23.90;48.20;;;;;;5109190;27;19939;-68